Time;durP1;ratioP1;P1;durP2;ratioP2;P2;SDS_P1;SDS_P2;PMS_P1;PMS_P2;Temp;Humidity;BMP_temperature;BMP_pressure;BME280_temperature;BME280_humidity;BME280_pressure;Samples;Min_cycle;Max_cycle;Signal;HPM_P1;HPM_P2
2022/09/14 00:01:14;;;;;;;2.15;1.05;;;;;;;15.55;78.23;99527.13;6321733;28;20495;-74
2022/09/14 00:04:17;;;;;;;1.98;1.27;;;;;;;15.49;78.40;99522.44;6322909;28;20169;-73
2022/09/14 00:07:18;;;;;;;2.03;1.33;;;;;;;15.42;79.36;99527.41;6322705;28;20040;-72
2022/09/14 00:10:18;;;;;;;1.88;1.38;;;;;;;15.41;80.40;99527.53;6321736;28;20097;-73
2022/09/14 00:13:19;;;;;;;2.40;1.83;;;;;;;15.39;80.18;99530.31;6322681;28;20047;-72
2022/09/14 00:16:23;;;;;;;1.63;1.23;;;;;;;15.33;80.75;99536.09;6321366;28;20066;-72
2022/09/14 00:19:25;;;;;;;2.05;1.20;;;;;;;15.29;82.25;99532.09;6322567;28;20047;-72
2022/09/14 00:22:26;;;;;;;;;;;;;;;15.29;82.51;99522.41;6321670;28;20556;-72
2022/09/14 00:25:29;;;;;;;1.40;1.20;;;;;;;15.30;82.91;99529.34;6321012;28;19920;-72
2022/09/14 00:28:30;;;;;;;2.17;1.42;;;;;;;15.19;83.27;99533.88;6322428;28;20052;-72
2022/09/14 00:31:34;;;;;;;2.45;1.50;;;;;;;15.18;84.17;99534.84;6321837;28;20075;-72
2022/09/14 00:34:35;;;;;;;1.65;1.23;;;;;;;15.24;84.07;99532.50;6321050;28;20040;-72
2022/09/14 00:37:35;;;;;;;1.20;1.08;;;;;;;15.08;85.18;99527.75;6320947;28;20562;-74
2022/09/14 00:40:39;;;;;;;2.67;1.67;;;;;;;15.06;85.46;99528.88;6303915;28;20054;-73
2022/09/14 00:44:00;;;;;;;2.10;1.67;;;;;;;15.15;85.27;99527.22;6321862;28;20072;-72
2022/09/14 00:47:04;;;;;;;1.63;1.48;;;;;;;15.15;85.21;99527.22;6322024;28;20051;-73
2022/09/14 00:50:06;;;;;;;1.55;1.40;;;;;;;15.15;86.12;99508.84;6322017;28;20051;-73
2022/09/14 00:53:06;;;;;;;1.48;1.13;;;;;;;15.09;86.15;99518.94;6320522;28;20040;-72
2022/09/14 00:56:07;;;;;;;1.67;1.42;;;;;;;15.11;86.65;99510.91;6320629;28;20086;-73
2022/09/14 00:59:16;;;;;;;1.80;1.48;;;;;;;15.08;87.00;99512.00;6321428;28;20067;-74
2022/09/14 01:02:19;;;;;;;2.50;1.25;;;;;;;15.00;87.50;99514.47;6321696;28;20047;-73
2022/09/14 01:05:30;;;;;;;1.63;1.02;;;;;;;14.97;87.86;99511.28;6321526;28;20520;-72
2022/09/14 01:08:38;;;;;;;2.33;1.30;;;;;;;14.97;87.07;99508.66;6321321;28;20075;-72
2022/09/14 01:11:57;;;;;;;1.77;1.20;;;;;;;14.99;86.29;99518.09;6321382;28;20051;-72
2022/09/14 01:15:19;;;;;;;3.13;1.27;;;;;;;15.13;85.98;99516.84;6321323;28;20454;-72
2022/09/14 01:18:22;;;;;;;4.50;1.50;;;;;;;15.09;87.83;99521.56;6320986;28;20071;-73
2022/09/14 01:21:37;;;;;;;3.17;1.42;;;;;;;15.06;86.51;99521.00;6319786;28;20416;-74
2022/09/14 01:24:47;;;;;;;5.38;1.80;;;;;;;15.11;86.19;99519.63;6321002;28;20123;-74
2022/09/14 01:27:50;;;;;;;2.25;1.40;;;;;;;15.03;86.79;99524.72;6320900;28;20040;-73
2022/09/14 01:30:54;;;;;;;1.60;1.23;;;;;;;15.07;86.64;99518.25;6319699;28;20043;-72
2022/09/14 01:34:14;;;;;;;2.67;1.48;;;;;;;15.11;87.30;99513.53;6319571;28;20047;-73
2022/09/14 01:37:26;;;;;;;1.40;1.08;;;;;;;14.99;87.01;99512.81;6320663;28;20047;-73
2022/09/14 01:40:26;;;;;;;1.10;1.00;;;;;;;15.10;87.02;99511.88;6320563;28;20485;-72
2022/09/14 01:43:40;;;;;;;2.05;1.35;;;;;;;15.04;87.16;99513.25;6318607;28;20071;-72
2022/09/14 01:46:46;;;;;;;2.13;1.25;;;;;;;15.04;88.07;99507.16;6319529;28;20491;-73
2022/09/14 01:49:56;;;;;;;1.98;1.40;;;;;;;15.08;87.43;99493.59;6320420;28;20462;-71
2022/09/14 01:53:04;;;;;;;1.75;1.20;;;;;;;15.04;86.94;99488.78;6320373;28;20040;-72
2022/09/14 01:56:20;;;;;;;1.75;1.17;;;;;;;15.00;87.81;99490.84;6320293;28;20047;-73
2022/09/14 01:59:30;;;;;;;1.80;1.23;;;;;;;15.00;87.68;99480.31;6320114;28;20101;-73
2022/09/14 02:02:38;;;;;;;2.25;1.30;;;;;;;15.07;86.92;99477.97;6318927;28;20580;-74
2022/09/14 02:05:46;;;;;;;1.10;1.00;;;;;;;14.97;86.97;99474.50;6320114;28;20039;-73
2022/09/14 02:08:50;;;;;;;1.52;1.15;;;;;;;14.96;87.21;99473.69;6319983;28;20480;-73
2022/09/14 02:11:53;;;;;;;6.25;1.27;;;;;;;14.91;88.31;99473.28;6320147;28;20043;-72
2022/09/14 02:14:57;;;;;;;2.05;1.05;;;;;;;14.80;88.22;99466.31;6319918;28;20050;-72
2022/09/14 02:17:58;;;;;;;1.45;1.02;;;;;;;14.85;88.33;99468.56;6319872;28;20461;-72
2022/09/14 02:21:08;;;;;;;4.65;1.17;;;;;;;14.79;88.10;99466.47;6320050;28;20044;-73
2022/09/14 02:24:10;;;;;;;2.00;1.35;;;;;;;14.79;88.91;99463.84;6319880;28;20043;-72
2022/09/14 02:27:10;;;;;;;1.65;1.33;;;;;;;14.86;87.71;99467.56;6318595;28;20046;-74
2022/09/14 02:30:11;;;;;;;2.65;1.33;;;;;;;14.75;88.51;99465.06;6319688;28;20044;-73
2022/09/14 02:33:44;;;;;;;1.20;1.00;;;;;;;14.69;89.12;99461.19;6318506;28;20036;-72
2022/09/14 02:36:47;;;;;;;1.77;1.13;;;;;;;14.70;89.58;99465.47;6291130;28;20424;-74
2022/09/14 02:40:12;;;;;;;1.38;0.90;;;;;;;14.57;90.74;99457.84;6319554;28;20040;-73
2022/09/14 02:43:46;;;;;;;1.75;1.00;;;;;;;14.73;90.03;99461.75;6318466;28;20044;-73
2022/09/14 02:46:57;;;;;;;2.83;1.30;;;;;;;14.69;90.49;99461.19;6317977;28;20076;-74
2022/09/14 02:50:19;;;;;;;1.48;1.15;;;;;;;14.75;90.03;99458.03;6319532;28;20499;-73
2022/09/14 02:53:26;;;;;;;7.70;1.35;;;;;;;14.71;89.97;99461.88;6318512;28;20050;-73
2022/09/14 02:56:28;;;;;;;1.52;1.10;;;;;;;14.63;90.35;99457.28;6304407;28;20048;-72
2022/09/14 02:59:29;;;;;;;1.88;1.20;;;;;;;14.69;90.69;99464.63;6324409;28;20048;-73
2022/09/14 03:02:30;;;;;;;1.73;1.30;;;;;;;14.66;90.46;99458.81;6324441;28;20476;-73
2022/09/14 03:05:33;;;;;;;1.13;1.02;;;;;;;14.57;91.10;99459.63;6323389;28;20054;-73
2022/09/14 03:08:34;;;;;;;1.88;1.40;;;;;;;14.50;91.66;99456.69;6324271;28;20040;-73
2022/09/14 03:11:35;;;;;;;1.50;1.20;;;;;;;14.42;92.78;99457.34;6323083;28;20071;-73
2022/09/14 03:14:36;;;;;;;2.22;1.08;;;;;;;14.43;93.18;99447.66;6324242;28;20044;-73
2022/09/14 03:17:37;;;;;;;1.80;0.95;;;;;;;14.34;91.97;99444.06;6323982;28;20048;-72
2022/09/14 03:20:38;;;;;;;1.95;1.45;;;;;;;14.41;92.51;99449.59;6323921;28;20040;-72
2022/09/14 03:23:50;;;;;;;1.20;1.05;;;;;;;14.29;92.35;99448.88;6322758;28;20093;-72
2022/09/14 03:26:51;;;;;;;1.10;0.95;;;;;;;14.42;91.54;99454.72;6323971;28;20042;-74
2022/09/14 03:29:52;;;;;;;1.58;0.98;;;;;;;14.42;92.04;99457.34;6323670;28;20471;-74
2022/09/14 03:32:55;;;;;;;1.38;1.00;;;;;;;14.39;93.48;99456.78;6323697;28;20209;-74
2022/09/14 03:35:56;;;;;;;1.75;1.17;;;;;;;14.28;93.78;99445.41;6322348;28;20336;-74
2022/09/14 03:38:58;;;;;;;1.83;1.25;;;;;;;14.35;93.67;99447.50;6323571;28;20036;-74
2022/09/14 03:41:59;;;;;;;;;;;;;;;14.33;93.16;99437.16;6324112;28;20073;-73
2022/09/14 03:45:00;;;;;;;0.77;0.77;;;;;;;14.28;93.96;99437.53;6323341;28;19955;-74
2022/09/14 03:48:01;;;;;;;1.52;0.95;;;;;;;14.27;93.19;99429.81;6322146;28;20047;-72
2022/09/14 03:51:03;;;;;;;1.45;1.20;;;;;;;14.25;93.03;99432.56;6323280;28;20089;-73
2022/09/14 03:54:04;;;;;;;3.20;1.05;;;;;;;14.23;92.81;99429.25;6322036;28;20044;-72
2022/09/14 03:57:06;;;;;;;1.83;1.42;;;;;;;14.30;93.15;99438.22;6322056;28;20082;-72
2022/09/14 04:00:07;;;;;;;1.45;1.10;;;;;;;14.34;92.85;99436.19;6323344;28;20537;-72
2022/09/14 04:03:08;;;;;;;1.50;0.93;;;;;;;14.29;92.56;99444.47;6323086;28;20062;-72
2022/09/14 04:06:10;;;;;;;1.83;1.40;;;;;;;14.25;92.12;99439.63;6321472;28;20111;-72
2022/09/14 04:09:10;;;;;;;1.33;1.13;;;;;;;14.31;93.06;99431.22;6322200;28;20504;-73
2022/09/14 04:12:11;;;;;;;2.42;1.17;;;;;;;14.24;94.83;99436.13;6322917;28;20273;-73
2022/09/14 04:15:12;;;;;;;1.25;1.10;;;;;;;14.14;93.77;99434.44;6322722;28;20596;-72
2022/09/14 04:18:12;;;;;;;6.57;1.17;;;;;;;14.13;95.80;99436.25;6321384;28;20132;-73
2022/09/14 04:21:16;;;;;;;2.22;1.50;;;;;;;14.18;95.34;99431.41;6322532;28;20044;-71
2022/09/14 04:24:17;;;;;;;4.45;1.30;;;;;;;14.20;92.99;99431.28;6321203;28;20071;-72
2022/09/14 04:27:18;;;;;;;1.45;1.08;;;;;;;14.13;93.37;99425.75;6322402;28;20534;-72
2022/09/14 04:30:18;;;;;;;3.30;1.08;;;;;;;14.09;93.91;99440.91;6322451;28;20043;-72
2022/09/14 04:33:19;;;;;;;0.82;0.77;;;;;;;13.99;94.76;99439.22;6321219;28;20040;-72
2022/09/14 04:36:22;;;;;;;2.60;1.23;;;;;;;13.99;95.04;99441.81;6322102;28;20043;-71
2022/09/14 04:39:23;;;;;;;2.17;1.30;;;;;;;14.03;93.76;99448.47;6320752;28;20561;-72
2022/09/14 04:42:24;;;;;;;2.13;0.93;;;;;;;14.00;95.15;99446.09;6320804;28;20067;-71
2022/09/14 04:45:25;;;;;;;1.23;1.02;;;;;;;14.00;93.04;99428.59;6321765;28;20052;-72
2022/09/14 04:48:27;;;;;;;0.90;0.80;;;;;;;13.95;94.43;99428.13;6321976;28;20047;-71
2022/09/14 04:51:30;;;;;;;1.80;1.00;;;;;;;14.06;93.60;99437.72;6321718;28;20051;-72
2022/09/14 04:54:31;;;;;;;1.77;1.20;;;;;;;14.11;91.89;99435.53;6320631;28;20036;-72
2022/09/14 04:57:31;;;;;;;1.77;1.08;;;;;;;14.20;91.41;99431.28;6321655;28;20060;-72
2022/09/14 05:00:34;;;;;;;5.88;0.98;;;;;;;14.22;92.13;99430.19;6321427;28;20040;-72
2022/09/14 05:03:40;;;;;;;2.40;1.40;;;;;;;14.30;92.24;99437.41;6320447;28;20082;-73
2022/09/14 05:06:42;;;;;;;1.02;0.90;;;;;;;14.27;90.58;99427.19;6321454;28;20055;-71
2022/09/14 05:09:45;;;;;;;1.85;1.13;;;;;;;14.35;90.19;99429.97;6321171;28;20048;-72
2022/09/14 05:12:45;;;;;;;3.08;1.27;;;;;;;14.35;89.99;99435.22;6321271;28;20067;-72
2022/09/14 05:15:49;;;;;;;2.30;1.27;;;;;;;14.41;90.66;99434.69;6321004;28;20047;-73
2022/09/14 05:18:54;;;;;;;1.00;0.90;;;;;;;14.42;91.43;99431.09;6319732;28;20040;-73
2022/09/14 05:21:58;;;;;;;1.13;1.02;;;;;;;14.42;89.94;99430.28;6321066;28;20032;-73
2022/09/14 05:24:59;;;;;;;1.23;1.13;;;;;;;14.62;89.74;99426.78;6320946;28;20040;-72
2022/09/14 05:27:59;;;;;;;1.23;1.13;;;;;;;14.74;89.17;99429.25;6320837;28;20054;-72
2022/09/14 05:31:11;;;;;;;1.63;1.00;;;;;;;14.73;88.54;99431.06;6319351;28;20272;-71
2022/09/14 05:34:13;;;;;;;1.65;0.98;;;;;;;14.86;86.57;99431.63;6320834;28;20056;-72
2022/09/14 05:37:13;;;;;;;1.95;1.38;;;;;;;14.89;87.30;99425.28;6321144;28;20506;-73
2022/09/14 05:40:14;;;;;;;1.13;0.90;;;;;;;14.98;86.81;99424.47;6320536;28;20119;-73
2022/09/14 05:43:15;;;;;;;1.48;1.00;;;;;;;15.01;84.62;99436.47;6319268;28;20089;-73
2022/09/14 05:46:21;;;;;;;1.20;1.00;;;;;;;15.07;83.46;99417.53;6319065;28;20472;-72
2022/09/14 05:49:24;;;;;;;1.60;1.20;;;;;;;15.27;82.85;99413.94;6319128;28;20046;-73
2022/09/14 05:52:24;;;;;;;3.17;1.38;;;;;;;15.47;81.68;99404.25;6320432;28;20051;-72
2022/09/14 05:55:25;;;;;;;1.90;1.20;;;;;;;15.68;81.69;99411.97;6320224;28;20164;-72
2022/09/14 05:58:26;;;;;;;1.83;1.23;;;;;;;15.80;79.06;99409.22;6320281;28;20470;-71
2022/09/14 06:01:32;;;;;;;3.17;1.30;;;;;;;16.08;77.12;99410.91;6320570;28;20043;-72
2022/09/14 06:04:33;;;;;;;7.40;1.13;;;;;;;16.48;75.98;99396.56;6318891;28;20123;-71
2022/09/14 06:07:34;;;;;;;1.58;0.90;;;;;;;16.80;75.39;99404.97;6317635;28;20048;-72
2022/09/14 06:10:35;;;;;;;7.15;1.20;;;;;;;16.76;72.78;99400.97;6302949;28;20068;-73
2022/09/14 06:13:35;;;;;;;2.17;1.05;;;;;;;16.62;73.44;99405.78;6295146;28;20041;-71
2022/09/14 06:16:39;;;;;;;3.63;0.93;;;;;;;16.79;74.04;99408.59;6294850;28;20036;-72
2022/09/14 06:19:40;;;;;;;0.95;0.90;;;;;;;16.93;73.21;99413.38;6293606;28;20040;-72
2022/09/14 06:22:40;;;;;;;0.82;0.75;;;;;;;16.86;71.46;99401.78;6294800;28;20047;-71
2022/09/14 06:25:41;;;;;;;0.70;0.70;;;;;;;17.00;73.23;99414.41;6295111;28;20051;-72
2022/09/14 06:28:42;;;;;;;1.50;0.80;;;;;;;17.04;72.10;99426.31;6294823;28;20122;-72
2022/09/14 06:31:43;;;;;;;1.13;0.80;;;;;;;17.09;72.19;99426.72;6294432;28;20044;-72
2022/09/14 06:34:44;;;;;;;1.73;1.00;;;;;;;17.05;70.79;99425.34;6297974;28;20135;-73
2022/09/14 06:37:47;;;;;;;1.00;0.90;;;;;;;17.19;69.62;99418.69;6286919;28;20424;-74
2022/09/14 06:40:56;;;;;;;0.95;0.80;;;;;;;17.31;68.99;99416.66;6306884;28;20441;-73
2022/09/14 06:44:00;;;;;;;9.32;1.30;;;;;;;17.40;68.65;99428.09;6314833;28;20049;-73
2022/09/14 06:47:01;;;;;;;0.73;0.70;;;;;;;17.62;67.05;99417.06;6327100;28;20516;-71
2022/09/14 06:50:02;;;;;;;1.10;1.00;;;;;;;17.68;68.09;99424.34;6310139;28;20051;-72
2022/09/14 06:53:04;;;;;;;1.50;1.08;;;;;;;17.72;68.45;99427.53;6293083;28;20147;-72
2022/09/14 06:56:07;;;;;;;;;;;;;;;17.70;67.09;99427.66;6310955;28;20108;-72
2022/09/14 06:59:14;;;;;;;1.30;0.85;;;;;;;17.91;66.65;99427.38;6319438;28;19920;-74
2022/09/14 07:02:15;;;;;;;2.10;0.73;;;;;;;17.98;66.02;99438.13;6318328;28;20094;-72
2022/09/14 07:05:19;;;;;;;1.25;1.02;;;;;;;17.92;66.92;99431.63;6301357;28;20060;-72
2022/09/14 07:08:20;;;;;;;1.73;1.00;;;;;;;17.88;66.77;99426.84;6319392;28;20147;-72
2022/09/14 07:11:26;;;;;;;1.05;0.68;;;;;;;17.86;66.83;99420.88;6317998;28;20560;-74
2022/09/14 07:14:27;;;;;;;1.17;1.08;;;;;;;17.93;67.62;99421.91;6309307;28;20043;-74
2022/09/14 07:17:27;;;;;;;1.23;0.85;;;;;;;17.92;67.11;99407.06;6301337;28;20492;-72
2022/09/14 07:20:28;;;;;;;3.72;1.00;;;;;;;18.02;67.17;99423.63;6315281;28;20085;-72
2022/09/14 07:23:29;;;;;;;2.17;1.02;;;;;;;18.13;66.18;99404.03;6306533;28;20169;-74
2022/09/14 07:26:38;;;;;;;1.67;1.13;;;;;;;18.40;66.50;99405.63;6315119;28;20040;-72
2022/09/14 07:29:39;;;;;;;6.72;1.27;;;;;;;18.58;65.34;99416.09;6313838;28;20044;-72
2022/09/14 07:32:40;;;;;;;1.02;0.80;;;;;;;18.67;64.17;99406.38;6294284;28;20071;-73
2022/09/14 07:35:41;;;;;;;0.68;0.68;;;;;;;19.03;63.83;99412.25;6314687;28;20334;-74
2022/09/14 07:38:41;;;;;;;1.33;0.93;;;;;;;19.03;62.16;99409.59;6300986;28;20155;-74
2022/09/14 07:41:45;;;;;;;0.65;0.65;;;;;;;19.26;62.37;99416.91;6300904;28;20554;-72
2022/09/14 07:44:46;;;;;;;1.02;0.80;;;;;;;19.52;61.95;99412.25;6323239;28;20121;-72
2022/09/14 07:47:47;;;;;;;1.27;0.95;;;;;;;19.67;61.66;99417.69;6323448;28;20048;-72
2022/09/14 07:51:07;;;;;;;1.17;0.80;;;;;;;19.77;61.72;99416.69;6323479;28;20044;-73
2022/09/14 07:54:11;;;;;;;4.03;1.00;;;;;;;19.83;61.06;99414.22;6323335;28;20044;-72
2022/09/14 07:57:12;;;;;;;2.75;1.42;;;;;;;20.04;61.41;99418.16;6320749;28;20181;-72
2022/09/14 08:00:15;;;;;;;2.75;0.95;;;;;;;20.15;59.76;99420.41;6303714;28;20049;-72
2022/09/14 08:03:15;;;;;;;2.90;0.80;;;;;;;20.15;60.93;99415.13;6297953;28;20041;-73
2022/09/14 08:06:19;;;;;;;7.23;0.90;;;;;;;20.11;58.50;99419.09;6297991;28;20071;-74
2022/09/14 08:09:19;;;;;;;1.77;1.00;;;;;;;20.10;59.09;99414.81;6296457;28;20087;-74
2022/09/14 08:12:21;;;;;;;2.27;1.10;;;;;;;20.07;59.67;99415.97;6297772;28;20094;-73
2022/09/14 08:15:22;;;;;;;0.70;0.70;;;;;;;20.00;60.33;99411.53;6297652;28;20420;-73
2022/09/14 08:18:23;;;;;;;0.88;0.68;;;;;;;19.75;61.03;99413.38;6284930;28;20051;-73
2022/09/14 08:21:25;;;;;;;2.03;0.90;;;;;;;19.70;59.92;99417.38;6295797;28;20537;-72
2022/09/14 08:24:25;;;;;;;4.07;0.90;;;;;;;19.68;61.44;99413.22;6321588;28;20047;-73
2022/09/14 08:27:28;;;;;;;2.00;0.95;;;;;;;19.61;61.21;99401.66;6312081;28;20561;-73
2022/09/14 08:30:29;;;;;;;3.97;1.00;;;;;;;19.51;62.59;99392.06;6311282;28;20044;-73
2022/09/14 08:33:35;;;;;;;1.13;0.82;;;;;;;19.57;61.77;99403.00;6321175;28;20048;-74
2022/09/14 08:36:38;;;;;;;1.60;0.98;;;;;;;19.50;61.97;99400.19;6317112;28;20043;-73
2022/09/14 08:39:39;;;;;;;1.92;0.90;;;;;;;19.51;62.41;99399.19;6298255;28;20120;-73
2022/09/14 08:42:40;;;;;;;1.27;1.00;;;;;;;19.43;63.28;99394.72;6316325;28;20068;-73
2022/09/14 08:45:42;;;;;;;3.78;1.00;;;;;;;19.49;63.11;99395.88;6320754;28;20082;-74
2022/09/14 08:48:47;;;;;;;2.00;0.90;;;;;;;19.41;63.61;99374.72;6303775;28;20556;-72
2022/09/14 08:51:51;;;;;;;3.70;0.88;;;;;;;19.44;63.21;99375.22;6320801;28;20040;-73
2022/09/14 08:54:58;;;;;;;1.80;1.02;;;;;;;19.47;66.57;99388.09;6321458;28;20476;-74
2022/09/14 08:58:36;;;;;;;1.50;1.27;;;;;;;19.36;68.99;99393.75;6321722;28;20047;-72
2022/09/14 09:01:59;;;;;;;2.70;1.00;;;;;;;19.21;67.70;99393.59;6287546;28;20094;-73
2022/09/14 09:05:17;;;;;;;3.17;1.05;;;;;;;19.30;69.04;99379.38;6296460;28;20120;-72
2022/09/14 09:08:26;;;;;;;2.45;1.05;;;;;;;19.38;68.73;99375.06;6296380;28;20066;-74
2022/09/14 09:11:38;;;;;;;4.28;1.08;;;;;;;19.47;67.51;99368.75;6319729;28;20739;-73
2022/09/14 09:14:52;;;;;;;1.25;1.00;;;;;;;19.62;65.86;99371.53;6320609;28;20083;-73
2022/09/14 09:17:58;;;;;;;1.15;0.93;;;;;;;19.84;64.93;99373.50;6305423;28;20056;-72
2022/09/14 09:21:20;;;;;;;5.25;2.25;;;;;;;20.08;64.69;99358.56;6312313;28;20045;-72
2022/09/14 09:24:31;;;;;;;1.08;0.95;;;;;;;20.20;63.77;99354.53;6294795;28;20036;-73
2022/09/14 09:27:32;;;;;;;2.97;0.85;;;;;;;20.12;62.99;99357.22;6304408;28;20051;-74
2022/09/14 09:30:33;;;;;;;3.23;1.07;;;;;;;20.30;63.91;99347.19;6321020;28;20474;-74
2022/09/14 09:33:34;;;;;;;4.13;1.05;;;;;;;20.34;62.98;99342.34;6295380;28;20098;-73
2022/09/14 09:36:38;;;;;;;4.73;1.30;;;;;;;20.60;62.09;99354.50;6303466;28;20419;-72
2022/09/14 09:39:39;;;;;;;1.65;1.20;;;;;;;20.64;63.95;99351.31;6310204;28;20091;-74
2022/09/14 09:43:10;;;;;;;2.60;1.07;;;;;;;20.62;62.24;99358.63;6295516;28;20044;-72
2022/09/14 09:46:11;;;;;;;1.73;0.95;;;;;;;20.71;62.31;99360.22;6294226;28;20143;-72
2022/09/14 09:49:28;;;;;;;4.93;1.30;;;;;;;20.48;63.98;99354.03;6294153;28;20508;-74
2022/09/14 09:52:30;;;;;;;1.63;0.90;;;;;;;20.18;65.02;99337.97;6295398;28;20229;-73
2022/09/14 09:55:37;;;;;;;1.40;1.10;;;;;;;20.14;65.05;99331.38;6294336;28;20037;-74
2022/09/14 09:58:38;;;;;;;2.08;1.13;;;;;;;20.24;65.68;99347.88;6294263;28;20040;-74
2022/09/14 10:01:39;;;;;;;1.43;0.90;;;;;;;20.17;65.05;99338.16;6306617;28;20499;-72
2022/09/14 10:04:59;;;;;;;1.87;0.93;;;;;;;20.27;65.90;99338.75;6309674;28;20037;-74
2022/09/14 10:08:06;;;;;;;2.70;0.95;;;;;;;20.61;64.44;99334.94;6301833;28;20044;-72
2022/09/14 10:11:28;;;;;;;1.63;1.00;;;;;;;20.78;62.97;99343.63;6294269;28;20052;-72
2022/09/14 10:14:31;;;;;;;1.80;0.98;;;;;;;20.97;62.79;99342.31;6310957;28;20053;-72
2022/09/14 10:17:32;;;;;;;1.48;1.17;;;;;;;21.06;65.08;99336.75;6318783;28;20059;-73
2022/09/14 10:20:35;;;;;;;5.00;1.17;;;;;;;21.00;63.24;99336.63;6320344;28;20070;-72
2022/09/14 10:23:38;;;;;;;1.05;0.95;;;;;;;20.89;62.24;99345.84;6320176;28;20542;-72
2022/09/14 10:26:38;;;;;;;1.92;1.17;;;;;;;20.83;62.75;99344.72;6319116;28;20450;-72
2022/09/14 10:29:44;;;;;;;6.30;1.40;;;;;;;20.83;62.33;99342.06;6319087;28;20145;-72
2022/09/14 10:33:05;;;;;;;1.30;1.00;;;;;;;20.75;63.09;99342.13;6301526;28;20101;-74
2022/09/14 10:36:18;;;;;;;1.83;0.82;;;;;;;20.82;64.88;99329.81;6301854;28;20048;-72
2022/09/14 10:39:30;;;;;;;0.80;0.80;;;;;;;20.70;64.19;99325.94;6320447;28;20442;-73
2022/09/14 10:42:41;;;;;;;1.13;1.00;;;;;;;20.63;64.74;99328.47;6301820;28;20448;-73
2022/09/14 10:45:59;;;;;;;1.65;1.20;;;;;;;20.70;66.71;99333.91;6318623;28;20076;-72
2022/09/14 10:49:12;;;;;;;3.55;1.33;;;;;;;20.76;65.86;99329.72;6304263;28;20055;-74
2022/09/14 10:52:51;;;;;;;7.15;1.10;;;;;;;21.00;65.19;99336.63;6295138;28;20045;-73
2022/09/14 10:56:02;;;;;;;0.98;0.85;;;;;;;21.05;66.51;99342.25;6272784;28;20060;-72
2022/09/14 10:59:18;;;;;;;2.03;1.17;;;;;;;20.94;66.39;99343.50;6294509;28;20561;-74
2022/09/14 11:02:23;;;;;;;1.20;0.90;;;;;;;20.99;66.96;99345.63;6296495;28;20064;-72
2022/09/14 11:05:38;;;;;;;3.95;0.98;;;;;;;20.98;67.67;99344.78;6298726;28;20051;-74
2022/09/14 11:08:49;;;;;;;1.75;1.02;;;;;;;21.19;69.97;99348.56;6294002;28;20143;-72
2022/09/14 11:12:19;;;;;;;2.30;1.30;;;;;;;21.11;73.81;99342.34;6294156;28;20048;-72
2022/09/14 11:15:36;;;;;;;3.15;1.30;;;;;;;21.02;76.32;99348.72;6294061;28;20048;-72
2022/09/14 11:19:15;;;;;;;1.52;0.85;;;;;;;20.85;72.92;99347.19;6280592;28;20575;-72
2022/09/14 11:22:33;;;;;;;2.35;1.40;;;;;;;20.90;72.97;99345.69;6280787;28;20056;-72
2022/09/14 11:25:52;;;;;;;4.82;1.40;;;;;;;20.83;75.93;99347.38;6298564;28;20052;-73
2022/09/14 11:28:56;;;;;;;10.25;1.85;;;;;;;20.75;75.70;99354.56;6297229;28;20452;-72
2022/09/14 11:32:05;;;;;;;6.18;1.60;;;;;;;20.68;73.51;99357.91;6297402;28;20071;-74
2022/09/14 11:35:15;;;;;;;2.95;1.60;;;;;;;20.75;76.17;99354.56;6298428;28;20094;-74
2022/09/14 11:38:21;;;;;;;2.85;1.80;;;;;;;20.70;75.60;99350.63;6298386;28;20064;-74
2022/09/14 11:41:40;;;;;;;2.33;1.58;;;;;;;20.71;79.14;99344.34;6298332;28;20503;-72
2022/09/14 11:44:43;;;;;;;2.35;1.50;;;;;;;20.62;84.53;99348.03;6296886;28;20106;-72
2022/09/14 11:47:54;;;;;;;1.73;1.60;;;;;;;20.59;89.91;99368.75;6296940;28;20488;-72
2022/09/14 11:51:05;;;;;;;2.75;2.00;;;;;;;20.46;93.06;99366.63;6298132;28;20045;-74
2022/09/14 11:54:16;;;;;;;2.60;2.05;;;;;;;20.57;100.00;99368.91;6313601;28;20052;-73
2022/09/14 11:57:25;;;;;;;3.10;2.10;;;;;;;20.75;100.00;99358.03;6313622;28;20045;-74
2022/09/14 12:00:43;;;;;;;2.47;1.98;;;;;;;20.96;100.00;99356.56;6296564;28;20037;-74
2022/09/14 12:04:18;;;;;;;3.03;1.92;;;;;;;21.18;100.00;99352.25;6313423;28;20107;-74
2022/09/14 12:07:39;;;;;;;6.05;2.83;;;;;;;21.29;100.00;99327.91;6263806;28;20068;-74
2022/09/14 12:10:58;;;;;;;2.63;2.20;;;;;;;21.14;100.00;99320.75;6296253;28;20511;-74
2022/09/14 12:14:26;;;;;;;3.05;1.80;;;;;;;20.85;100.00;99323.34;6306944;28;20051;-75
2022/09/14 12:17:31;;;;;;;2.63;2.05;;;;;;;20.77;100.00;99315.44;6289121;28;20063;-73
2022/09/14 12:20:41;;;;;;;1.95;1.60;;;;;;;20.69;100.00;99317.16;6296450;28;20098;-73
2022/09/14 12:23:50;;;;;;;4.18;1.92;;;;;;;20.54;100.00;99316.25;6297544;28;20496;-74
2022/09/14 12:26:51;;;;;;;1.83;1.58;;;;;;;20.53;100.00;99317.25;6310993;28;20070;-73
2022/09/14 12:29:52;;;;;;;4.33;2.13;;;;;;;20.52;100.00;99319.06;6321845;28;20048;-73
2022/09/14 12:32:52;;;;;;;13.13;2.50;;;;;;;20.45;100.00;99318.13;6322449;28;20416;-73
2022/09/14 12:35:53;;;;;;;4.10;2.30;;;;;;;20.52;100.00;99308.47;6322318;28;20040;-74
2022/09/14 12:38:54;;;;;;;3.13;2.17;;;;;;;20.48;100.00;99303.69;6319316;28;20040;-74
2022/09/14 12:41:54;;;;;;;7.73;2.77;;;;;;;20.51;100.00;99298.88;6304067;28;20125;-74
2022/09/14 12:44:55;;;;;;;3.93;2.50;;;;;;;20.64;100.00;99286.88;6304304;28;20048;-74
2022/09/14 12:47:56;;;;;;;5.70;2.83;;;;;;;20.80;100.00;99286.75;6295825;28;20044;-74
2022/09/14 12:50:57;;;;;;;8.37;2.60;;;;;;;21.01;100.00;99272.81;6295688;28;20056;-73
2022/09/14 12:54:01;;;;;;;5.43;2.20;;;;;;;21.22;100.00;99271.28;6297226;28;20060;-74
2022/09/14 12:57:04;;;;;;;4.35;2.47;;;;;;;21.44;100.00;99259.81;6321043;28;20036;-74
2022/09/14 13:00:15;;;;;;;3.08;2.08;;;;;;;21.57;100.00;99248.53;6320358;28;20409;-73
2022/09/14 13:03:43;;;;;;;3.08;2.30;;;;;;;21.79;100.00;99244.13;6321726;28;20123;-74
2022/09/14 13:06:46;;;;;;;3.00;2.50;;;;;;;21.94;100.00;99252.88;6318970;28;20409;-72
2022/09/14 13:09:53;;;;;;;4.00;2.20;;;;;;;21.98;100.00;99250.69;6306783;28;20385;-72
2022/09/14 13:12:55;;;;;;;2.90;2.38;;;;;;;22.01;100.00;99252.97;6304748;28;20040;-72
2022/09/14 13:15:59;;;;;;;3.65;2.20;;;;;;;22.20;100.00;99243.56;6294867;28;20424;-73
2022/09/14 13:19:03;;;;;;;2.63;2.00;;;;;;;22.19;100.00;99238.44;6278062;28;20267;-74
2022/09/14 13:22:20;;;;;;;3.95;2.35;;;;;;;22.40;100.00;99245.63;6311793;28;20396;-74
2022/09/14 13:25:37;;;;;;;4.35;2.88;;;;;;;22.62;100.00;99236.63;6295952;28;20037;-74
2022/09/14 13:28:43;;;;;;;3.40;2.50;;;;;;;22.69;99.44;99237.53;6345321;27;20036;-74
2022/09/14 13:31:44;;;;;;;3.50;2.40;;;;;;;22.70;100.00;99227.69;6302899;28;20168;-74
2022/09/14 13:34:46;;;;;;;2.47;2.10;;;;;;;22.72;100.00;99217.69;6302716;28;20433;-72
2022/09/14 13:37:48;;;;;;;3.22;1.92;;;;;;;22.73;89.90;99214.84;6319480;28;20102;-73
2022/09/14 13:40:52;;;;;;;3.17;2.22;;;;;;;22.73;89.64;99214.00;6320772;28;20121;-74
2022/09/14 13:43:55;;;;;;;3.08;2.30;;;;;;;22.66;94.66;99207.81;6302631;28;20090;-72
2022/09/14 13:46:58;;;;;;;3.75;1.90;;;;;;;22.71;98.86;99198.28;6302257;28;20520;-74
2022/09/14 13:49:59;;;;;;;2.67;2.13;;;;;;;22.60;100.00;99188.16;6319388;28;20048;-74
2022/09/14 13:53:00;;;;;;;5.20;2.10;;;;;;;22.67;100.00;99190.84;6319345;28;20474;-72
2022/09/14 13:56:27;;;;;;;7.47;2.20;;;;;;;22.74;100.00;99183.75;6319138;28;20050;-72
2022/09/14 13:59:27;;;;;;;2.13;1.58;;;;;;;22.98;98.21;99187.81;6302256;28;20067;-72
2022/09/14 14:02:32;;;;;;;2.40;1.90;;;;;;;23.05;100.00;99180.72;6295144;28;20481;-74
2022/09/14 14:05:40;;;;;;;3.05;1.80;;;;;;;22.83;94.53;99179.09;6293668;28;20410;-74
2022/09/14 14:08:41;;;;;;;3.00;2.08;;;;;;;22.83;93.70;99182.56;6295148;28;20094;-74
2022/09/14 14:11:50;;;;;;;6.45;2.05;;;;;;;22.76;92.33;99181.72;6293659;28;20048;-74
2022/09/14 14:14:54;;;;;;;1.90;1.70;;;;;;;22.79;92.37;99181.31;6295073;28;20340;-74
2022/09/14 14:17:58;;;;;;;2.78;1.55;;;;;;;22.66;90.96;99173.25;6277081;28;20056;-74
2022/09/14 14:21:26;;;;;;;2.47;1.83;;;;;;;22.59;93.25;99172.38;6294769;28;20420;-72
2022/09/14 14:24:28;;;;;;;2.35;1.67;;;;;;;22.62;93.80;99167.50;6274714;28;20048;-72
2022/09/14 14:27:35;;;;;;;2.40;1.60;;;;;;;22.49;90.30;99160.25;6310375;28;20049;-73
2022/09/14 14:30:39;;;;;;;10.00;4.30;;;;;;;22.41;91.38;99155.09;6310416;28;20063;-74
2022/09/14 14:33:49;;;;;;;9.75;5.18;;;;;;;22.56;95.05;99154.16;6327301;28;20072;-74
2022/09/14 14:36:54;;;;;;;4.43;2.85;;;;;;;22.45;95.17;99144.91;6294842;28;20064;-74